Time;durP1;ratioP1;P1;durP2;ratioP2;P2;SDS_P1;SDS_P2;PMS_P1;PMS_P2;Temp;Humidity;BMP_temperature;BMP_pressure;BME280_temperature;BME280_humidity;BME280_pressure;Samples;Min_cycle;Max_cycle;Signal;HPM_P1;HPM_P2
2022/03/22 00:01:30;;;;;;;8.18;5.75;;;5.40;99.90;;;;;;5107816;28;20135;-76
2022/03/22 00:03:56;;;;;;;6.35;4.72;;;5.40;99.90;;;;;;5078893;28;20421;-77
2022/03/22 00:06:22;;;;;;;7.07;4.97;;;5.30;99.90;;;;;;5091395;28;20097;-77
2022/03/22 00:08:48;;;;;;;7.10;5.18;;;5.30;99.90;;;;;;5071350;28;20160;-76
2022/03/22 00:11:15;;;;;;;8.18;6.07;;;5.20;99.90;;;;;;5107690;27;20438;-77
2022/03/22 00:13:44;;;;;;;9.30;6.45;;;5.20;99.90;;;;;;5108664;28;20474;-77
2022/03/22 00:16:12;;;;;;;7.03;5.20;;;5.20;99.90;;;;;;5108232;28;20040;-76
2022/03/22 00:18:38;;;;;;;9.02;5.82;;;5.10;99.90;;;;;;5108443;28;20537;-77
2022/03/22 00:21:06;;;;;;;7.90;5.70;;;5.10;99.90;;;;;;5108352;28;20118;-76
2022/03/22 00:23:33;;;;;;;7.85;5.32;;;5.10;99.90;;;;;;5108770;28;20112;-76
2022/03/22 00:25:59;;;;;;;9.27;6.57;;;5.20;99.90;;;;;;5090760;28;20036;-76
2022/03/22 00:28:25;;;;;;;12.75;9.07;;;5.20;99.90;;;;;;5092022;28;20051;-76
2022/03/22 00:30:51;;;;;;;16.30;11.60;;;5.40;99.90;;;;;;5108090;28;20044;-77
2022/03/22 00:33:17;;;;;;;23.00;15.48;;;5.50;99.90;;;;;;5071059;28;20048;-77
2022/03/22 00:35:42;;;;;;;22.02;16.15;;;5.70;99.90;;;;;;5090226;28;20079;-77
2022/03/22 00:38:11;;;;;;;21.63;15.38;;;5.90;99.90;;;;;;5091367;28;20082;-76
2022/03/22 00:40:38;;;;;;;19.23;14.25;;;6.00;99.90;;;;;;5107973;28;20050;-77
2022/03/22 00:43:04;;;;;;;21.88;15.30;;;6.10;99.90;;;;;;5107829;28;20073;-76
2022/03/22 00:45:34;;;;;;;21.52;15.32;;;6.20;99.90;;;;;;5105598;28;20097;-77
2022/03/22 00:48:02;;;;;;;19.80;14.02;;;6.20;99.90;;;;;;5108698;28;20391;-75
2022/03/22 00:50:33;;;;;;;19.38;13.75;;;6.30;99.90;;;;;;5108343;28;20047;-75
2022/03/22 00:53:00;;;;;;;21.45;15.55;;;6.30;99.90;;;;;;5106248;28;20478;-77
2022/03/22 00:55:27;;;;;;;22.27;15.45;;;6.30;99.90;;;;;;5090659;28;20088;-77
2022/03/22 00:57:55;;;;;;;20.90;14.93;;;6.40;99.90;;;;;;5090491;28;20044;-77
2022/03/22 01:00:24;;;;;;;18.00;13.45;;;6.40;99.90;;;;;;5104000;28;20059;-76
2022/03/22 01:02:52;;;;;;;18.33;13.43;;;6.40;99.90;;;;;;5089948;28;20086;-76
2022/03/22 01:05:19;;;;;;;21.83;14.50;;;6.40;99.90;;;;;;5089983;28;20387;-76
2022/03/22 01:08:06;;;;;;;23.85;16.92;;;6.40;99.90;;;;;;5108133;28;20050;-77
2022/03/22 01:10:34;;;;;;;24.33;17.07;;;6.50;99.90;;;;;;5107773;28;20036;-76
2022/03/22 01:13:00;;;;;;;24.40;18.13;;;6.60;99.90;;;;;;5091133;28;20719;-76
2022/03/22 01:15:34;;;;;;;23.67;17.45;;;6.60;99.90;;;;;;5107601;28;20082;-76
2022/03/22 01:18:08;;;;;;;26.38;19.45;;;6.70;99.90;;;;;;5106571;28;20509;-76
2022/03/22 01:20:41;;;;;;;25.45;18.50;;;6.70;99.90;;;;;;5105051;28;20038;-76
2022/03/22 01:23:08;;;;;;;25.45;18.10;;;6.70;99.90;;;;;;5106594;28;20071;-75
2022/03/22 01:25:35;;;;;;;23.98;17.00;;;6.70;99.90;;;;;;5106946;28;20050;-76
2022/03/22 01:28:03;;;;;;;22.40;16.27;;;6.70;99.90;;;;;;5105259;28;20043;-76
2022/03/22 01:30:30;;;;;;;23.38;16.65;;;6.70;99.90;;;;;;5090031;28;20046;-76
2022/03/22 01:32:56;;;;;;;;;;;6.70;99.90;;;;;;5091077;28;20040;-77
2022/03/22 01:35:24;;;;;;;24.73;17.63;;;6.70;99.90;;;;;;5105849;28;20417;-76
2022/03/22 01:37:50;;;;;;;26.02;18.20;;;6.70;99.90;;;;;;5091022;28;20752;-75
2022/03/22 01:40:18;;;;;;;29.40;17.27;;;6.70;99.90;;;;;;5090336;28;20110;-76
2022/03/22 01:42:44;;;;;;;29.98;18.88;;;6.80;99.90;;;;;;5098911;28;20036;-76
2022/03/22 01:45:11;;;;;;;28.77;17.90;;;6.70;99.90;;;;;;5095205;28;20043;-80
2022/03/22 01:47:40;;;;;;;23.70;15.88;;;6.70;99.90;;;;;;5090067;28;20417;-80
2022/03/22 01:50:09;;;;;;;23.50;16.27;;;6.70;99.90;;;;;;5113547;28;20051;-80
2022/03/22 01:52:39;;;;;;;21.70;13.73;;;6.60;99.90;;;;;;5093119;28;20047;-80
2022/03/22 01:55:07;;;;;;;20.23;12.15;;;6.60;99.90;;;;;;5112596;28;20483;-80
2022/03/22 01:57:33;;;;;;;16.27;10.95;;;6.60;99.90;;;;;;5094440;28;20047;-80
2022/03/22 02:00:01;;;;;;;18.10;12.23;;;6.50;99.90;;;;;;5076119;28;20047;-80
2022/03/22 02:08:01;;;;;;;19.08;12.18;;;6.50;99.90;;;;;;5112816;28;20100;-80
2022/03/22 02:10:27;;;;;;;17.20;10.95;;;6.40;99.90;;;;;;5112569;28;20063;-80
2022/03/22 02:12:53;;;;;;;14.25;9.82;;;6.40;99.90;;;;;;5112602;28;20047;-80
2022/03/22 02:15:19;;;;;;;13.60;9.00;;;6.30;99.90;;;;;;5095836;28;20392;-79
2022/03/22 02:17:45;;;;;;;12.48;8.48;;;6.30;99.90;;;;;;5096783;28;20487;-80
2022/03/22 02:20:16;;;;;;;13.52;9.23;;;6.20;99.90;;;;;;5094683;28;20066;-80
2022/03/22 02:23:08;;;;;;;16.08;11.40;;;6.20;99.90;;;;;;5113422;28;20394;-79
2022/03/22 02:25:35;;;;;;;17.58;12.30;;;6.20;99.90;;;;;;5110502;28;20462;-79
2022/03/22 02:28:02;;;;;;;16.20;11.32;;;6.30;99.90;;;;;;5112484;28;20043;-79
2022/03/22 02:30:28;;;;;;;21.17;14.82;;;6.30;99.90;;;;;;5112420;28;20106;-80
2022/03/22 02:32:58;;;;;;;18.85;13.93;;;6.40;99.90;;;;;;5094908;28;20116;-79
2022/03/22 02:35:24;;;;;;;19.13;13.82;;;6.50;99.90;;;;;;5112398;28;20046;-80
2022/03/22 02:37:51;;;;;;;21.85;15.52;;;6.50;99.90;;;;;;5094508;28;20035;-76
2022/03/22 02:40:18;;;;;;;21.70;15.98;;;6.60;99.90;;;;;;5111391;28;20088;-80
2022/03/22 02:42:53;;;;;;;25.25;17.83;;;6.60;99.90;;;;;;5111599;28;20044;-76
2022/03/22 02:45:21;;;;;;;22.95;16.45;;;6.60;99.90;;;;;;5107966;28;20036;-75
2022/03/22 02:47:47;;;;;;;18.48;13.18;;;6.60;99.90;;;;;;5092419;28;20039;-75
2022/03/22 02:50:13;;;;;;;18.73;13.35;;;6.70;99.90;;;;;;5076147;28;20088;-76
2022/03/22 02:52:40;;;;;;;15.23;11.25;;;6.60;99.90;;;;;;5093061;28;20088;-76
2022/03/22 02:55:07;;;;;;;14.30;10.27;;;6.60;99.90;;;;;;5073337;28;20052;-76
2022/03/22 02:57:35;;;;;;;14.65;10.88;;;6.60;99.90;;;;;;5110538;28;20048;-76
2022/03/22 03:00:04;;;;;;;14.63;10.30;;;6.50;99.90;;;;;;5110448;28;20044;-76
2022/03/22 03:02:29;;;;;;;10.95;8.52;;;6.40;99.90;;;;;;5104425;28;20031;-76
2022/03/22 03:04:56;;;;;;;11.57;8.70;;;6.30;99.90;;;;;;5109827;28;20089;-76
2022/03/22 03:07:21;;;;;;;10.05;7.38;;;6.20;99.90;;;;;;5107760;28;20081;-76
2022/03/22 03:09:48;;;;;;;9.23;6.85;;;6.10;99.90;;;;;;5093301;28;20078;-75
2022/03/22 03:12:14;;;;;;;9.02;6.50;;;6.10;99.90;;;;;;5110102;28;20455;-76
2022/03/22 03:14:40;;;;;;;9.50;6.65;;;5.90;99.90;;;;;;5090258;28;20048;-75
2022/03/22 03:17:13;;;;;;;9.73;6.78;;;5.80;99.90;;;;;;5092597;28;20088;-76
2022/03/22 03:19:39;;;;;;;8.88;6.68;;;5.70;99.90;;;;;;5109456;28;20042;-75
2022/03/22 03:22:05;;;;;;;16.95;11.57;;;5.60;99.90;;;;;;5109042;28;20047;-76
2022/03/22 03:24:32;;;;;;;19.63;13.80;;;5.60;99.90;;;;;;5109880;28;20372;-75
2022/03/22 03:26:58;;;;;;;20.58;14.70;;;5.60;99.90;;;;;;5109679;28;20123;-75
2022/03/22 03:29:25;;;;;;;22.77;16.95;;;5.70;99.90;;;;;;5107751;28;20031;-76
2022/03/22 03:31:50;;;;;;;28.08;20.33;;;5.80;99.90;;;;;;5108567;28;20035;-75
2022/03/22 03:34:17;;;;;;;27.70;18.85;;;6.00;99.90;;;;;;5107296;28;20058;-75
2022/03/22 03:36:43;;;;;;;24.80;17.38;;;6.10;99.90;;;;;;5109156;28;20043;-75
2022/03/22 03:39:10;;;;;;;24.83;18.08;;;6.20;99.90;;;;;;5089619;28;20093;-76
2022/03/22 03:47:09;;;;;;;22.20;16.33;;;6.30;99.90;;;;;;5107082;28;20394;-77
2022/03/22 03:49:42;;;;;;;22.92;15.18;;;6.30;99.90;;;;;;5091888;28;20039;-77
2022/03/22 03:52:29;;;;;;;18.73;14.35;;;6.30;99.90;;;;;;5092168;28;20114;-77
2022/03/22 03:54:56;;;;;;;20.23;14.68;;;6.30;99.90;;;;;;5108018;28;20043;-76
2022/03/22 03:57:23;;;;;;;20.40;15.40;;;6.30;99.90;;;;;;5111442;27;20089;-76
2022/03/22 03:59:50;;;;;;;18.42;13.43;;;6.30;99.90;;;;;;5112277;27;20043;-75
2022/03/22 04:02:19;;;;;;;18.65;14.00;;;6.30;99.90;;;;;;5111924;27;20137;-76
2022/03/22 04:04:55;;;;;;;16.80;13.13;;;6.30;99.90;;;;;;5111633;27;20374;-75
2022/03/22 04:07:26;;;;;;;15.70;11.93;;;6.20;99.90;;;;;;5083709;27;20402;-76
2022/03/22 04:09:54;;;;;;;16.92;12.55;;;6.20;99.90;;;;;;5109142;27;20036;-76
2022/03/22 04:12:20;;;;;;;17.25;12.80;;;6.20;99.90;;;;;;5130675;27;20043;-76
2022/03/22 04:14:48;;;;;;;22.50;15.95;;;6.20;99.90;;;;;;5111145;27;20055;-76
2022/03/22 04:17:15;;;;;;;23.30;16.52;;;6.20;99.90;;;;;;5092242;27;20058;-75
2022/03/22 04:19:41;;;;;;;19.98;14.52;;;6.20;99.90;;;;;;5112475;27;20035;-76
2022/03/22 04:22:08;;;;;;;19.83;15.15;;;6.20;99.90;;;;;;5110162;27;20042;-76
2022/03/22 04:24:33;;;;;;;;;;;6.20;99.90;;;;;;5112086;27;20087;-75
2022/03/22 04:32:43;;;;;;;27.58;19.90;;;6.20;99.90;;;;;;5111861;27;20047;-76
2022/03/22 04:35:20;;;;;;;24.27;17.10;;;6.20;99.90;;;;;;5110674;27;20069;-76
2022/03/22 04:37:52;;;;;;;19.33;14.68;;;6.20;99.90;;;;;;5111310;27;20035;-76
2022/03/22 04:40:19;;;;;;;18.95;12.75;;;6.20;99.90;;;;;;5111561;27;20039;-76
2022/03/22 04:42:45;;;;;;;18.42;12.95;;;6.20;99.90;;;;;;5092843;27;20279;-76
2022/03/22 04:45:11;;;;;;;17.42;12.23;;;6.20;99.90;;;;;;5083968;27;20034;-76
2022/03/22 04:47:37;;;;;;;17.75;12.32;;;6.20;99.90;;;;;;5111443;27;20042;-75
2022/03/22 04:50:04;;;;;;;19.70;13.05;;;6.10;99.90;;;;;;5111557;27;20039;-76
2022/03/22 04:57:59;;;;;;;11.60;8.32;;;6.00;99.90;;;;;;5111431;27;20150;-76
2022/03/22 05:00:24;;;;;;;11.43;8.45;;;5.90;99.90;;;;;;5110363;28;20541;-75
2022/03/22 05:02:50;;;;;;;11.95;8.48;;;5.90;99.90;;;;;;5109575;27;20080;-76
2022/03/22 05:06:25;;;;;;;10.98;7.95;;;5.80;99.90;;;;;;5089952;27;20095;-77
2022/03/22 05:08:03;;;;;;;10.77;7.28;;;5.70;99.90;;;;;;5110544;28;20255;-76
2022/03/22 05:10:31;;;;;;;11.55;8.27;;;5.60;99.90;;;;;;5111490;28;20074;-77
2022/03/22 05:12:57;;;;;;;8.75;6.53;;;5.50;99.90;;;;;;5095241;28;20046;-77
2022/03/22 05:15:23;;;;;;;;;;;5.50;99.90;;;;;;5111701;28;20474;-76
2022/03/22 05:17:49;;;;;;;8.88;6.30;;;5.30;99.90;;;;;;5093351;28;19992;-76
2022/03/22 05:20:15;;;;;;;9.43;7.00;;;5.20;99.90;;;;;;5111100;28;20035;-77
2022/03/22 05:22:42;;;;;;;9.13;6.55;;;5.20;99.90;;;;;;5074605;28;20039;-77
2022/03/22 05:25:09;;;;;;;8.45;6.22;;;5.10;99.90;;;;;;5094120;28;20047;-74
2022/03/22 05:27:37;;;;;;;8.10;5.82;;;5.10;99.90;;;;;;5110398;28;20089;-75
2022/03/22 05:30:04;;;;;;;8.80;6.07;;;5.00;99.90;;;;;;5093180;28;20488;-74
2022/03/22 05:32:30;;;;;;;7.97;5.70;;;5.00;99.90;;;;;;5110536;28;20077;-79
2022/03/22 05:34:55;;;;;;;8.80;5.93;;;4.90;99.90;;;;;;5112221;28;20067;-80
2022/03/22 05:37:22;;;;;;;8.30;5.90;;;4.90;99.90;;;;;;5110955;28;20117;-77
2022/03/22 05:39:48;;;;;;;9.38;6.63;;;4.80;99.90;;;;;;5111380;28;20095;-80
2022/03/22 05:42:14;;;;;;;9.55;6.80;;;4.80;99.90;;;;;;5112425;28;20509;-81
2022/03/22 05:44:41;;;;;;;10.57;7.60;;;4.80;99.90;;;;;;5110948;28;20043;-79
2022/03/22 05:47:07;;;;;;;12.55;8.98;;;4.90;99.90;;;;;;5110623;28;20058;-80
2022/03/22 05:49:33;;;;;;;11.95;7.90;;;5.00;99.90;;;;;;5109950;28;20148;-76
2022/03/22 05:52:03;;;;;;;10.38;7.57;;;5.00;99.90;;;;;;5123708;28;20099;-75
2022/03/22 05:54:29;;;;;;;10.65;8.07;;;5.10;99.90;;;;;;5108021;28;20035;-74
2022/03/22 05:56:55;;;;;;;11.50;8.90;;;5.10;99.90;;;;;;5107070;28;20035;-74
2022/03/22 05:59:21;;;;;;;15.90;10.00;;;5.20;99.90;;;;;;5107380;28;20234;-75
2022/03/22 06:01:47;;;;;;;16.95;12.75;;;5.30;99.90;;;;;;5108868;28;20075;-74
2022/03/22 06:04:13;;;;;;;16.35;12.30;;;5.30;99.90;;;;;;5109576;28;20111;-74
2022/03/22 06:06:39;;;;;;;16.45;11.15;;;5.40;99.90;;;;;;5109451;28;20070;-79
2022/03/22 06:09:05;;;;;;;;;;;5.50;99.90;;;;;;5108313;28;20118;-79
2022/03/22 06:11:35;;;;;;;12.80;8.88;;;5.50;99.90;;;;;;5108880;28;20060;-79
2022/03/22 06:14:02;;;;;;;10.70;7.68;;;5.60;99.90;;;;;;5074789;28;20130;-79
2022/03/22 06:16:28;;;;;;;9.13;7.03;;;5.60;99.90;;;;;;5092659;28;20032;-79
2022/03/22 06:18:54;;;;;;;10.88;8.35;;;5.70;99.90;;;;;;5074693;28;20042;-79
2022/03/22 06:21:20;;;;;;;11.27;8.40;;;5.70;99.90;;;;;;5109950;28;20077;-80
2022/03/22 06:23:47;;;;;;;11.32;8.27;;;5.70;99.90;;;;;;5109736;28;20112;-80
2022/03/22 06:26:13;;;;;;;11.82;8.50;;;5.80;99.90;;;;;;5093254;28;20490;-79
2022/03/22 06:28:39;;;;;;;11.27;8.70;;;5.90;99.90;;;;;;5110400;28;20058;-80
2022/03/22 06:31:05;;;;;;;11.02;7.90;;;6.00;99.90;;;;;;5096269;27;20061;-79
2022/03/22 06:33:31;;;;;;;9.30;7.13;;;6.00;99.90;;;;;;5095555;27;20118;-80
2022/03/22 06:35:57;;;;;;;9.35;7.13;;;6.10;99.90;;;;;;5096547;27;20048;-80
2022/03/22 06:38:22;;;;;;;9.05;6.82;;;6.20;99.90;;;;;;5076586;27;20492;-80
2022/03/22 06:40:50;;;;;;;8.52;6.10;;;6.20;99.90;;;;;;5091229;27;20039;-80
2022/03/22 06:43:17;;;;;;;7.50;5.63;;;6.30;99.90;;;;;;5113240;27;20035;-79
2022/03/22 06:45:45;;;;;;;7.10;5.30;;;6.40;99.90;;;;;;5111766;27;20079;-79
2022/03/22 06:48:11;;;;;;;9.65;7.13;;;6.40;99.90;;;;;;5112060;27;20038;-79
2022/03/22 06:50:38;;;;;;;11.50;8.25;;;6.50;99.90;;;;;;5112563;27;20054;-78
2022/03/22 06:53:06;;;;;;;10.10;7.90;;;6.60;99.90;;;;;;5112372;27;20039;-80
2022/03/22 06:55:33;;;;;;;8.48;6.47;;;6.60;99.90;;;;;;5114396;27;20042;-79
2022/03/22 06:58:00;;;;;;;8.27;6.22;;;6.70;99.90;;;;;;5115018;27;20043;-79
2022/03/22 07:00:31;;;;;;;6.82;5.30;;;6.90;99.90;;;;;;5097983;27;20057;-79
2022/03/22 07:02:57;;;;;;;6.82;5.00;;;7.00;99.90;;;;;;5115071;27;20130;-79
2022/03/22 07:05:23;;;;;;;;;;;7.10;99.90;;;;;;5114471;27;20054;-78
2022/03/22 07:07:49;;;;;;;6.53;5.13;;;7.20;99.90;;;;;;5114181;27;19915;-79
2022/03/22 07:10:17;;;;;;;6.07;4.68;;;7.30;99.90;;;;;;5114405;27;20043;-80
2022/03/22 07:12:54;;;;;;;7.15;5.47;;;7.40;99.90;;;;;;5114611;27;20397;-79
2022/03/22 07:15:31;;;;;;;5.90;3.70;;;7.50;99.90;;;;;;5113709;27;20128;-79
2022/03/22 07:18:00;;;;;;;5.47;4.32;;;7.60;99.90;;;;;;5097724;27;20045;-78
2022/03/22 07:20:26;;;;;;;11.05;8.13;;;7.70;99.90;;;;;;5112566;27;20042;-80
2022/03/22 07:22:52;;;;;;;13.45;10.15;;;7.80;99.90;;;;;;5114718;27;20583;-74
2022/03/22 07:25:19;;;;;;;13.65;9.27;;;7.80;99.90;;;;;;5114027;27;20043;-74
2022/03/22 07:27:44;;;;;;;;;;;7.90;99.90;;;;;;5114512;27;20096;-74
2022/03/22 07:30:11;;;;;;;14.38;11.00;;;8.00;99.90;;;;;;5113531;27;19919;-73
2022/03/22 07:32:40;;;;;;;;;;;8.00;99.90;;;;;;5114485;27;20058;-74
2022/03/22 07:35:07;;;;;;;15.13;11.52;;;8.10;99.90;;;;;;5113596;27;19931;-74
2022/03/22 07:37:34;;;;;;;12.43;9.68;;;8.30;99.90;;;;;;5112468;27;20158;-74
2022/03/22 07:40:03;;;;;;;12.95;9.50;;;8.50;99.90;;;;;;5114090;27;20162;-74
2022/03/22 07:42:30;;;;;;;13.27;9.88;;;8.70;99.90;;;;;;5113687;27;20095;-74
2022/03/22 07:44:57;;;;;;;14.30;10.98;;;8.90;99.90;;;;;;5113880;27;20054;-74
2022/03/22 07:47:24;;;;;;;14.93;10.90;;;9.10;99.90;;;;;;5111721;27;20047;-74
2022/03/22 07:55:20;;;;;;;16.17;13.02;;;9.80;99.90;;;;;;5092494;28;20112;-74
2022/03/22 07:57:46;;;;;;;17.38;12.93;;;10.10;99.90;;;;;;5112299;27;20059;-75
2022/03/22 08:00:13;;;;;;;16.52;13.43;;;10.30;99.90;;;;;;5096206;27;20088;-75
2022/03/22 08:03:01;;;;;;;17.30;13.48;;;10.50;99.90;;;;;;5096140;27;20126;-75
2022/03/22 08:05:27;;;;;;;16.42;12.85;;;10.70;99.90;;;;;;5113066;27;20074;-75
2022/03/22 08:07:53;;;;;;;;;;;10.90;99.90;;;;;;5095264;27;20082;-73
2022/03/22 08:10:20;;;;;;;19.65;15.43;;;11.10;99.90;;;;;;5108455;27;19960;-75
2022/03/22 08:12:46;;;;;;;19.67;15.15;;;11.40;99.90;;;;;;5112621;27;20134;-75
2022/03/22 08:15:13;;;;;;;21.42;15.90;;;11.70;99.90;;;;;;5113005;27;20130;-75
2022/03/22 08:17:39;;;;;;;19.35;15.77;;;11.80;99.90;;;;;;5092666;28;20040;-75
2022/03/22 08:20:06;;;;;;;;;;;12.10;99.90;;;;;;5111361;27;20043;-75
2022/03/22 08:22:33;;;;;;;16.55;12.82;;;12.20;99.90;;;;;;5112044;27;19966;-75
2022/03/22 08:24:59;;;;;;;15.38;12.65;;;12.30;99.90;;;;;;5113035;27;20102;-75
2022/03/22 08:27:24;;;;;;;;;;;12.20;99.90;;;;;;5105457;27;20039;-75
2022/03/22 08:29:51;;;;;;;15.77;12.15;;;12.20;99.90;;;;;;5113084;27;19982;-76
2022/03/22 08:32:17;;;;;;;;;;;12.30;99.90;;;;;;5112940;27;20080;-75
2022/03/22 08:34:42;;;;;;;16.55;13.07;;;12.20;99.90;;;;;;5113328;27;19915;-75
2022/03/22 08:37:08;;;;;;;18.15;13.32;;;12.30;99.90;;;;;;5112826;27;20083;-75
2022/03/22 08:39:34;;;;;;;15.98;12.30;;;12.30;99.90;;;;;;5112633;27;20031;-75
2022/03/22 08:42:00;;;;;;;15.23;11.77;;;12.40;99.90;;;;;;5113028;27;20401;-75
2022/03/22 08:44:25;;;;;;;17.23;13.18;;;12.60;99.90;;;;;;5112340;27;20107;-75
2022/03/22 08:46:52;;;;;;;16.10;12.05;;;12.70;99.90;;;;;;5096200;27;20034;-75
2022/03/22 08:49:18;;;;;;;14.73;11.35;;;12.80;99.90;;;;;;5095911;27;20039;-74
2022/03/22 08:51:44;;;;;;;17.65;14.25;;;13.00;99.90;;;;;;5094981;27;20153;-75
2022/03/22 08:54:09;;;;;;;19.63;14.82;;;13.10;99.90;;;;;;5112087;27;20059;-75
2022/03/22 08:56:35;;;;;;;18.75;14.50;;;13.10;99.90;;;;;;5071889;28;20044;-75
2022/03/22 08:59:01;;;;;;;18.88;13.05;;;13.20;99.90;;;;;;5112648;27;20043;-75
2022/03/22 09:01:30;;;;;;;20.13;15.02;;;13.30;99.90;;;;;;5112627;28;20527;-75
2022/03/22 09:06:44;;;;;;;17.73;13.80;;;13.60;99.90;;;;;;5073087;27;20768;-75
2022/03/22 09:09:10;;;;;;;18.55;14.85;;;13.70;99.90;;;;;;5095875;27;20043;-75
2022/03/22 09:11:39;;;;;;;21.50;14.55;;;13.70;99.60;;;;;;5112757;27;20138;-75
2022/03/22 09:14:05;;;;;;;17.42;13.65;;;13.80;99.90;;;;;;5095372;28;20036;-75
2022/03/22 09:16:32;;;;;;;21.27;16.15;;;13.90;99.90;;;;;;5112406;27;20531;-76
2022/03/22 09:18:58;;;;;;;18.00;14.38;;;13.90;99.60;;;;;;5095443;28;20031;-75
2022/03/22 09:21:24;;;;;;;;;;;14.00;98.40;;;;;;5112641;28;20050;-74
2022/03/22 09:23:50;;;;;;;16.45;12.93;;;14.00;98.80;;;;;;5112468;28;19919;-75
2022/03/22 09:26:15;;;;;;;16.67;13.52;;;14.00;99.00;;;;;;5112594;28;20046;-75
2022/03/22 09:28:42;;;;;;;15.77;12.95;;;14.10;99.40;;;;;;5112326;28;20375;-75
2022/03/22 09:31:08;;;;;;;16.33;12.93;;;14.20;98.10;;;;;;5095032;28;20470;-75
2022/03/22 09:33:33;;;;;;;;;;;14.30;98.80;;;;;;5092562;28;20500;-75
2022/03/22 09:35:59;;;;;;;15.63;12.65;;;14.40;99.10;;;;;;5108138;28;19919;-76
2022/03/22 09:38:25;;;;;;;13.45;11.45;;;14.40;97.40;;;;;;5112184;28;20103;-75
2022/03/22 09:40:54;;;;;;;16.27;12.18;;;14.50;97.50;;;;;;5092144;28;20093;-75
2022/03/22 09:43:24;;;;;;;17.80;14.27;;;14.50;97.80;;;;;;5109162;28;20543;-75
2022/03/22 09:45:51;;;;;;;22.20;17.67;;;14.50;97.00;;;;;;5091476;28;20111;-75
2022/03/22 09:48:17;;;;;;;18.98;14.82;;;14.60;98.70;;;;;;5092030;28;20083;-75
2022/03/22 09:53:27;;;;;;;14.77;11.55;;;14.60;96.70;;;;;;5111747;28;19919;-75
2022/03/22 09:55:53;;;;;;;18.10;13.55;;;14.70;96.30;;;;;;5112113;28;20050;-75
2022/03/22 09:58:20;;;;;;;16.05;12.15;;;14.80;96.60;;;;;;5112089;28;20054;-75
2022/03/22 10:00:46;;;;;;;16.38;12.63;;;14.90;98.90;;;;;;5111030;28;20047;-76
2022/03/22 10:03:22;;;;;;;17.13;13.00;;;15.00;97.00;;;;;;5112038;28;20054;-76
2022/03/22 10:06:02;;;;;;;20.20;15.25;;;15.10;97.30;;;;;;5115825;27;20057;-75
2022/03/22 10:08:28;;;;;;;15.90;11.68;;;15.20;97.00;;;;;;5115924;27;20099;-75
2022/03/22 10:11:00;;;;;;;14.10;10.18;;;15.30;95.80;;;;;;5096847;27;20040;-75
2022/03/22 10:13:27;;;;;;;12.13;9.30;;;15.40;95.80;;;;;;5116104;27;20054;-75
2022/03/22 10:16:01;;;;;;;10.45;7.85;;;15.60;95.50;;;;;;5115409;27;20475;-75
2022/03/22 10:18:27;;;;;;;15.65;11.35;;;15.70;95.50;;;;;;5115679;27;20035;-75
2022/03/22 10:21:01;;;;;;;23.70;17.42;;;15.80;93.50;;;;;;5115527;27;20035;-75
2022/03/22 10:23:28;;;;;;;26.15;16.45;;;15.90;96.10;;;;;;5108710;27;20095;-75
2022/03/22 10:26:07;;;;;;;15.73;12.45;;;16.00;94.30;;;;;;5115697;27;20038;-75
2022/03/22 10:28:35;;;;;;;16.25;12.13;;;16.10;94.20;;;;;;5082893;27;20072;-75
2022/03/22 10:31:00;;;;;;;16.75;12.63;;;16.30;94.10;;;;;;5115359;27;20050;-75
2022/03/22 10:33:26;;;;;;;17.35;13.90;;;16.40;93.60;;;;;;5115049;27;20039;-75
2022/03/22 10:35:52;;;;;;;14.52;11.38;;;16.50;93.40;;;;;;5098499;27;20123;-75
2022/03/22 10:38:19;;;;;;;14.75;12.00;;;16.70;93.50;;;;;;5115484;27;20039;-75
2022/03/22 10:40:47;;;;;;;14.10;10.88;;;16.80;92.70;;;;;;5115552;27;20066;-75
2022/03/22 10:43:19;;;;;;;17.85;13.00;;;17.00;92.70;;;;;;5114982;27;20043;-75
2022/03/22 10:46:00;;;;;;;16.58;13.00;;;17.40;93.80;;;;;;5115394;27;20068;-74
2022/03/22 10:48:32;;;;;;;15.20;12.30;;;17.60;92.40;;;;;;5114585;27;20058;-74
2022/03/22 10:50:59;;;;;;;12.98;10.65;;;18.00;92.10;;;;;;5094645;28;20044;-75
2022/03/22 10:53:27;;;;;;;15.20;11.85;;;18.30;92.60;;;;;;5114047;27;20142;-74
2022/03/22 10:55:54;;;;;;;16.17;12.90;;;18.60;92.70;;;;;;5114726;27;20032;-74
2022/03/22 10:58:26;;;;;;;16.73;13.38;;;18.80;90.90;;;;;;5111071;28;20131;-75
2022/03/22 11:00:52;;;;;;;18.58;14.02;;;18.80;91.00;;;;;;5107715;28;20048;-75
2022/03/22 11:03:19;;;;;;;21.30;14.15;;;19.00;92.30;;;;;;5097172;28;20032;-75
2022/03/22 11:05:48;;;;;;;15.90;11.95;;;19.20;90.80;;;;;;5090431;28;20039;-74
2022/03/22 11:08:21;;;;;;;16.88;13.32;;;19.40;90.40;;;;;;5107853;28;20487;-74
2022/03/22 11:10:47;;;;;;;16.00;13.50;;;19.50;90.10;;;;;;5086687;28;20058;-75
2022/03/22 11:13:13;;;;;;;13.90;11.80;;;19.60;88.60;;;;;;5074228;28;20395;-74
2022/03/22 11:15:40;;;;;;;;;;;19.70;90.60;;;;;;5110429;28;20036;-74
2022/03/22 11:18:07;;;;;;;20.35;14.23;;;19.80;89.20;;;;;;5111339;28;19922;-75
2022/03/22 11:20:34;;;;;;;14.18;11.45;;;19.80;87.90;;;;;;5092466;28;20036;-75
2022/03/22 11:23:00;;;;;;;15.50;12.55;;;19.90;87.70;;;;;;5111404;28;20036;-75
2022/03/22 11:25:35;;;;;;;15.32;11.88;;;20.10;85.80;;;;;;5111693;28;20047;-74
2022/03/22 11:28:13;;;;;;;15.32;12.43;;;20.20;85.20;;;;;;5094640;28;20051;-74
2022/03/22 11:30:40;;;;;;;14.88;12.13;;;20.30;84.60;;;;;;5111384;28;20096;-75
2022/03/22 11:36:01;;;;;;;18.00;12.50;;;20.60;83.30;;;;;;5110623;28;20057;-75
2022/03/22 11:38:43;;;;;;;19.25;13.88;;;20.90;84.20;;;;;;5110362;28;20040;-74
2022/03/22 11:44:16;;;;;;;17.42;12.98;;;21.00;80.60;;;;;;5105176;28;20085;-75
2022/03/22 11:46:43;;;;;;;15.50;12.57;;;21.00;81.20;;;;;;5109846;28;20443;-74
2022/03/22 11:49:23;;;;;;;17.60;14.07;;;21.10;80.30;;;;;;5110531;28;20047;-74
2022/03/22 11:51:57;;;;;;;17.98;14.55;;;21.10;77.60;;;;;;5109901;28;20056;-74
2022/03/22 11:54:25;;;;;;;15.20;12.48;;;21.00;77.80;;;;;;5093518;28;20047;-74
2022/03/22 11:56:55;;;;;;;16.80;12.70;;;21.00;76.90;;;;;;5109725;28;20048;-74
2022/03/22 11:59:21;;;;;;;18.10;13.45;;;21.00;76.50;;;;;;5109967;28;20447;-74
2022/03/22 12:02:05;;;;;;;19.80;15.35;;;21.00;76.00;;;;;;5109941;28;20052;-75
2022/03/22 12:04:38;;;;;;;20.88;15.27;;;20.80;76.70;;;;;;5109905;28;20043;-75
2022/03/22 12:07:06;;;;;;;21.13;15.35;;;20.80;76.80;;;;;;5109590;28;20483;-75
2022/03/22 12:09:34;;;;;;;17.25;13.35;;;20.90;77.30;;;;;;5093396;28;20498;-75
2022/03/22 12:12:01;;;;;;;19.05;13.48;;;21.00;76.60;;;;;;5110053;28;20128;-75
2022/03/22 12:14:28;;;;;;;14.70;11.75;;;21.20;76.80;;;;;;5110202;28;20126;-75
2022/03/22 12:16:57;;;;;;;15.48;11.75;;;21.40;76.30;;;;;;5109985;28;20113;-75
2022/03/22 12:19:28;;;;;;;15.70;12.18;;;21.40;74.70;;;;;;5112266;28;20042;-75
2022/03/22 12:21:55;;;;;;;18.40;14.00;;;21.60;75.60;;;;;;5108217;28;20032;-80
2022/03/22 12:24:27;;;;;;;17.08;12.57;;;21.40;74.30;;;;;;5109133;28;20027;-80
2022/03/22 12:26:56;;;;;;;16.70;12.52;;;21.50;74.50;;;;;;5109514;28;20167;-78
2022/03/22 12:29:22;;;;;;;17.17;11.85;;;21.40;74.10;;;;;;5110075;28;20042;-82
2022/03/22 12:31:52;;;;;;;;;;;21.40;73.50;;;;;;5093554;28;20031;-81
2022/03/22 12:34:18;;;;;;;16.48;11.40;;;21.40;73.50;;;;;;5108914;28;20374;-81
2022/03/22 12:36:44;;;;;;;16.58;12.13;;;21.70;74.70;;;;;;5091748;28;20512;-81
2022/03/22 12:39:11;;;;;;;16.67;12.23;;;21.70;73.00;;;;;;5109545;28;20127;-81
2022/03/22 12:41:39;;;;;;;17.90;13.43;;;21.70;73.00;;;;;;5093453;28;20074;-80
2022/03/22 12:44:06;;;;;;;19.33;13.93;;;21.70;73.50;;;;;;5089748;28;20123;-80
2022/03/22 12:46:32;;;;;;;19.08;13.40;;;21.70;72.50;;;;;;5092110;28;20039;-80
2022/03/22 12:48:58;;;;;;;17.40;13.00;;;21.80;73.50;;;;;;5109850;28;20043;-79
2022/03/22 12:51:25;;;;;;;16.38;12.13;;;21.90;71.60;;;;;;5109151;28;20508;-79
2022/03/22 12:53:54;;;;;;;17.33;13.07;;;21.90;71.80;;;;;;5091142;28;20051;-81
2022/03/22 12:56:21;;;;;;;16.50;12.52;;;21.80;70.60;;;;;;5092285;28;20061;-80
2022/03/22 12:58:49;;;;;;;17.33;13.02;;;21.90;70.90;;;;;;5078254;28;20879;-81
2022/03/22 13:01:18;;;;;;;19.17;14.35;;;21.80;70.70;;;;;;5091145;28;20039;-79
2022/03/22 13:03:48;;;;;;;17.67;13.15;;;21.80;70.00;;;;;;5093258;28;20180;-83
2022/03/22 13:06:14;;;;;;;17.70;13.02;;;21.80;72.40;;;;;;5088479;28;20513;-82
2022/03/22 13:11:27;;;;;;;12.93;10.43;;;22.10;70.40;;;;;;5110186;28;20058;-82
2022/03/22 13:16:38;;;;;;;16.70;12.55;;;22.40;69.40;;;;;;5092446;28;20111;-81
2022/03/22 13:19:06;;;;;;;22.17;14.88;;;22.40;69.20;;;;;;5105797;28;20036;-81
2022/03/22 13:21:37;;;;;;;19.67;14.00;;;22.10;67.80;;;;;;5073934;28;20038;-81
2022/03/22 13:24:12;;;;;;;19.58;14.45;;;22.10;68.30;;;;;;5093788;28;20486;-80
2022/03/22 13:27:02;;;;;;;20.55;14.15;;;21.90;69.60;;;;;;5111159;28;20065;-80
2022/03/22 13:29:54;;;;;;;16.13;11.50;;;22.00;69.10;;;;;;5091704;28;20395;-83